Terminal Aerodrome Forecast
Issued by NWS Greer, SC

Home | Current Version | Previous Version | Text Only | Print | Product List | Glossary On
Versions: 1 2 3 4 5 6 7 8 9 10 11 12
571
FTUS42 KGSP 160540
TAFGSP
TAF
KGSP 160540Z 1606/1706 20003KT P6SM SCT250
     FM161600 21006KT P6SM SCT120 BKN250
     FM170100 22004KT P6SM SCT050 BKN120 PROB30 1702/1706 4SM -RA
      OVC025=

USA.gov is the U.S. government's official web portal to all federal, state and local government web resources and services.